Pago Pago, AS

4:59 AM SST on March 04, 2015 (GMT -1100)
Bradshaw Army Air Field | Change Station
CLOSE
Current Station
Airport
Location: Bradshaw AFB,
Elevation: 6191 ft
Nearby Weather Stations

Elev 6191 ft 19.76 °N, 155.55 °W | Updated 3 minutes ago

Light Rain Showers
Light Showers Rain
52 °F
Feels Like 52 °F
N
2
Wind Variable Wind from ESE

Today
High -- | Low -- °F
--% Chance of Precip.
Yesterday
High -- | Low -- °F
Precip. -- in
6:24 AM 6:44 PM
Waxing Gibbous, 99% visible
Pressure 29.94 in
Visibility 8.0 miles
Clouds Mostly Cloudy 6000 ft
Dew Point 50 °F
Humidity 94%
Rainfall 0.01 in
Snow Depth Not available.
UV 0 out of 12
Pollen Not available.
Air Quality Not available.
Flu Activity Not available.
METAR PHSF 041556Z AUTO 12002KT 8SM -SHRA BKN060 11/10 A3024 RMK AO2 RAE55SHRAB55 SLP139 P0001 T01130103 $

More Conditions Fewer Conditions

Pressure 29.94 in
Visibility 8.0 miles
Clouds Mostly Cloudy 6000 ft
Dew Point 50 °F
Humidity 94%
Rainfall 0.01 in
Snow Depth Not available.
UV 0 out of 12
Pollen Not available.
Air Quality Not available.
Flu Activity Not available.
METAR PHSF 041556Z AUTO 12002KT 8SM -SHRA BKN060 11/10 A3024 RMK AO2 RAE55SHRAB55 SLP139 P0001 T01130103 $

More Conditions Fewer Conditions

10-Day Weather Forecast

Almanac

Astronomy

Mar. 04, 2015 Rise Set
Actual Time
Civil Twilight
Nautical Twilight
Astronomical Twilight
Moon
Length of Visible Light
Length of Day
Tomorrow will be .
, % of the Moon is Illuminated

Today's Extremes

State Highs State Lows

Community

WunderPhotos

Upload Photos

1,802,496 photos uploaded!

WunderBlogs® & News

Nearby

Air Quality

  Air Quality AQ Index Pollutant
Not available.

Snow Depth

Station Depth Elevation

Earthquake Activity

City Distance Mag. Time & Date
Minimum magnitude displayed is 2.5.

Coastal Water Temperatures

Place Temperature

Nearby Weather Stations